London Mills, Illinois
Current Conditions -  °F | °C
As of 10:15 AM on Thursday 18 Dec 2014 (Local Time) from KGBG Reporting Station
Overcast Overcast  
Wind Chill: -4°   Ceiling: 9000
Heat Index: -4°   Visibility: 10mi
Dew Point: -7°   Wind: 0mph
Humidity: 82%   Direction: NA
Pressure: 30.31"   Gusts: NA
Location:  40.71°N, 90.27°W
Report Text: KGBG 181615Z AUTO 00000KT 10SM OVC090 M04/M07 A3031 RMK AO2 T10431070
Loading
Personal Weather Stations






























Interactive Weather Map New forecast layout! Learn more

10-Day Weather Forecast

Advertisements
Track Severe Weather on mobile